Time;durP1;ratioP1;P1;durP2;ratioP2;P2;SDS_P1;SDS_P2;PMS_P1;PMS_P2;Temp;Humidity;BMP_temperature;BMP_pressure;BME280_temperature;BME280_humidity;BME280_pressure;Samples;Min_cycle;Max_cycle;Signal;HPM_P1;HPM_P2
2023/01/29 00:01:56;;;;;;;46.03;17.10;;;;;;;-2.19;100.00;103099.22;5051947;23;20282;-92
2023/01/29 00:04:21;;;;;;;49.85;17.58;;;;;;;-2.15;100.00;103101.16;5028649;23;20054;-92
2023/01/29 00:06:47;;;;;;;43.55;16.42;;;;;;;-2.09;100.00;103086.31;5060114;23;20058;-85
2023/01/29 00:09:13;;;;;;;43.50;16.77;;;;;;;-2.08;100.00;103081.34;4978018;23;20062;-92
2023/01/29 00:11:39;;;;;;;42.88;17.02;;;;;;;-2.07;100.00;103084.75;5107311;23;20044;-85
2023/01/29 00:14:05;;;;;;;44.78;17.80;;;;;;;-2.09;100.00;103087.19;5040932;23;20062;-85
2023/01/29 00:16:30;;;;;;;43.40;17.98;;;;;;;-2.13;100.00;103064.94;5025482;23;20058;-93
2023/01/29 00:18:55;;;;;;;44.70;17.90;;;;;;;-2.07;100.00;103078.00;4970014;28;20034;-93
2023/01/29 00:21:22;;;;;;;51.75;18.52;;;;;;;-2.05;100.00;103084.03;5037237;23;20324;-93
2023/01/29 00:23:48;;;;;;;51.33;18.70;;;;;;;-2.05;100.00;103073.03;4978495;23;20165;-85
2023/01/29 00:26:14;;;;;;;46.38;18.23;;;;;;;-2.03;100.00;103062.16;4974870;23;20042;-92
2023/01/29 00:28:39;;;;;;;45.08;18.30;;;;;;;-2.17;100.00;103040.09;5185087;23;20137;-85
2023/01/29 00:31:26;;;;;;;43.40;17.47;;;;;;;-2.03;100.00;103064.69;5025033;23;1198561;-93
2023/01/29 00:33:51;;;;;;;46.22;17.50;;;;;;;-2.05;100.00;103060.34;5015994;23;20050;-85
2023/01/29 00:36:18;;;;;;;42.28;17.02;;;;;;;-2.12;100.00;103053.09;4981875;28;20049;-85
2023/01/29 00:38:53;;;;;;;46.95;17.40;;;;;;;-2.14;100.00;103060.63;5051856;23;20402;-85
2023/01/29 00:46:32;;;;;;;40.72;14.82;;;;;;;-2.32;100.00;103049.28;4828891;23;20115;-86
2023/01/29 00:48:58;;;;;;;40.15;15.13;;;;;;;-2.39;100.00;103024.31;5211105;23;20062;-92
2023/01/29 00:51:23;;;;;;;42.90;15.77;;;;;;;-2.44;100.00;103029.06;4754305;23;20405;-85
2023/01/29 00:53:49;;;;;;;38.50;14.60;;;;;;;-2.43;100.00;103035.03;5053336;23;20055;-93
2023/01/29 00:56:14;;;;;;;41.40;14.98;;;;;;;-2.49;100.00;103027.91;5162817;23;20050;-93
2023/01/29 00:58:39;;;;;;;38.90;14.02;;;;;;;-2.50;100.00;103031.22;5011226;23;20054;-85
2023/01/29 01:01:05;;;;;;;41.20;14.38;;;;;;;-2.53;100.00;103027.63;5005628;28;20034;-85
2023/01/29 01:06:06;;;;;;;43.22;15.15;;;;;;;-2.58;100.00;103019.69;4813432;23;20061;-93
2023/01/29 01:11:15;;;;;;;39.55;15.30;;;;;;;-2.65;100.00;103027.69;5005256;28;20147;-93
2023/01/29 01:13:41;;;;;;;35.33;13.68;;;;;;;-2.78;100.00;103007.34;5071077;23;20149;-86
2023/01/29 01:16:11;;;;;;;44.60;15.02;;;;;;;-2.69;100.00;103028.28;5168232;23;20100;-88
2023/01/29 01:21:06;;;;;;;39.95;14.60;;;;;;;-2.76;100.00;103018.50;5081934;23;20058;-93
2023/01/29 01:23:32;;;;;;;41.00;14.15;;;;;;;-2.72;100.00;103030.59;4970105;28;20029;-91
2023/01/29 01:25:58;;;;;;;38.00;13.68;;;;;;;-2.71;100.00;103023.88;4988371;28;20502;-91
2023/01/29 01:28:23;;;;;;;41.20;13.73;;;;;;;-2.72;100.00;103022.97;5025783;23;20050;-91
2023/01/29 01:30:49;;;;;;;34.78;13.60;;;;;;;-2.73;100.00;103018.72;5049265;23;20188;-91
2023/01/29 01:33:14;;;;;;;36.60;13.63;;;;;;;-2.63;100.00;103033.75;4964942;23;20062;-84
2023/01/29 01:35:40;;;;;;;37.42;13.32;;;;;;;-2.58;100.00;103029.84;4999867;23;20054;-92
2023/01/29 01:38:05;;;;;;;40.33;14.30;;;;;;;-2.54;100.00;103039.44;4725799;23;20115;-84
2023/01/29 01:40:31;;;;;;;37.25;13.57;;;;;;;-2.51;100.00;103037.06;4995405;28;20034;-84
2023/01/29 01:45:31;;;;;;;37.17;13.57;;;;;;;-2.38;100.00;103028.56;5006110;23;20060;-91
2023/01/29 01:48:02;;;;;;;38.20;13.15;;;;;;;-2.39;100.00;103026.84;4983355;23;20051;-84
2023/01/29 01:50:30;;;;;;;37.45;13.27;;;;;;;-2.34;100.00;103027.13;4965504;28;20038;-84
2023/01/29 01:53:05;;;;;;;43.13;14.02;;;;;;;-2.35;100.00;103035.50;5096942;23;20099;-84
2023/01/29 01:55:34;;;;;;;39.30;13.25;;;;;;;-2.35;100.00;103030.44;4623747;23;20181;-84
2023/01/29 01:58:10;;;;;;;37.85;12.63;;;;;;;-2.33;100.00;103031.44;5026701;23;20054;-92
2023/01/29 02:00:36;;;;;;;36.15;13.10;;;;;;;-2.31;100.00;103032.38;4692215;23;20324;-92
2023/01/29 02:11:13;;;;;;;38.65;13.13;;;;;;;-2.20;100.00;103037.38;4818315;23;20046;-84
2023/01/29 02:13:41;;;;;;;38.58;13.57;;;;;;;-2.15;100.00;103040.19;5182274;23;20130;-92
2023/01/29 02:18:36;;;;;;;39.40;13.90;;;;;;;-2.14;100.00;103034.34;4939102;23;20259;-84
2023/01/29 02:24:04;;;;;;;40.53;14.70;;;;;;;-1.98;100.00;103042.16;4981459;23;20125;-84
2023/01/29 02:26:51;;;;;;;37.25;13.55;;;;;;;-1.91;100.00;103051.88;5059511;23;20492;-92
2023/01/29 02:29:32;;;;;;;41.63;13.63;;;;;;;-1.85;100.00;103049.75;5026152;23;20812;-87
2023/01/29 02:32:27;;;;;;;42.38;13.88;;;;;;;-1.76;100.00;103041.78;4900527;23;20073;-92
2023/01/29 02:37:51;;;;;;;38.03;13.82;;;;;;;-1.64;100.00;103045.94;5044707;23;20411;-92
2023/01/29 02:40:27;;;;;;;40.42;14.20;;;;;;;-1.62;100.00;103044.41;5135595;23;20108;-87
2023/01/29 02:43:07;;;;;;;39.20;13.57;;;;;;;-1.55;100.00;103039.69;5079054;23;20065;-92
2023/01/29 02:45:38;;;;;;;39.72;13.95;;;;;;;-1.51;100.00;103037.44;5002887;28;20048;-92
2023/01/29 02:48:03;;;;;;;37.80;14.02;;;;;;;-1.52;100.00;103033.13;5139165;23;20104;-93
2023/01/29 02:50:43;;;;;;;37.65;13.38;;;;;;;-1.41;100.00;103042.28;5027375;23;20056;-85
2023/01/29 02:53:09;;;;;;;40.53;13.65;;;;;;;-1.37;100.00;103043.34;5023631;23;20061;-93
2023/01/29 03:04:00;;;;;;;41.88;13.57;;;;;;;-1.27;100.00;103033.81;4874885;23;20054;-93
2023/01/29 03:06:36;;;;;;;40.10;14.30;;;;;;;-1.30;100.00;103026.00;5234645;23;20940;-88
2023/01/29 03:17:24;;;;;;;40.72;14.85;;;;;;;-1.15;100.00;103026.00;5023388;23;20108;-85
2023/01/29 03:19:50;;;;;;;42.75;14.77;;;;;;;-1.08;100.00;103032.34;4997576;23;20066;-93
2023/01/29 03:22:19;;;;;;;41.58;15.00;;;;;;;-1.06;100.00;103028.22;4971721;28;20022;-92
2023/01/29 03:33:02;;;;;;;39.35;14.25;;;;;;;-1.00;100.00;103024.38;5091089;23;20065;-93
2023/01/29 03:37:57;;;;;;;44.78;15.40;;;;;;;-0.99;100.00;103026.13;4715899;23;20932;-85
2023/01/29 03:40:22;;;;;;;43.40;15.43;;;;;;;-0.94;100.00;103021.28;4900271;23;20048;-92
2023/01/29 03:46:00;;;;;;;41.03;14.80;;;;;;;-0.87;100.00;103019.19;4911260;23;20414;-85
2023/01/29 03:48:28;;;;;;;42.85;15.70;;;;;;;-0.86;100.00;103009.88;5210260;23;20082;-85
2023/01/29 03:51:11;;;;;;;40.42;14.77;;;;;;;-0.85;100.00;103011.66;5149574;23;20055;-88
2023/01/29 03:53:54;;;;;;;42.17;14.90;;;;;;;-0.84;100.00;103004.09;5047229;23;20574;-85
2023/01/29 03:56:32;;;;;;;43.88;16.25;;;;;;;-0.84;100.00;103004.09;4989402;23;20146;-93
2023/01/29 03:59:04;;;;;;;42.55;15.43;;;;;;;-0.83;100.00;103005.88;5017252;23;20063;-93
2023/01/29 04:01:50;;;;;;;47.53;15.93;;;;;;;-0.83;100.00;102994.81;4997921;23;20062;-93
2023/01/29 04:04:29;;;;;;;42.13;15.65;;;;;;;-0.77;100.00;102995.16;4956547;28;20073;-92
2023/01/29 04:07:01;;;;;;;45.33;15.55;;;;;;;-0.78;100.00;102984.88;4972514;28;20030;-93
2023/01/29 04:09:35;;;;;;;43.75;16.33;;;;;;;-0.77;100.00;102977.34;5099895;23;20114;-85
2023/01/29 04:17:18;;;;;;;46.33;16.35;;;;;;;-0.74;100.00;102992.75;4868247;23;20046;-92
2023/01/29 04:19:43;;;;;;;39.40;14.85;;;;;;;-0.73;100.00;102986.00;4948686;28;20472;-93
2023/01/29 04:27:39;;;;;;;44.63;16.15;;;;;;;-0.69;100.00;102978.66;4966062;23;20051;-93
2023/01/29 04:30:27;;;;;;;49.75;16.45;;;;;;;-0.68;100.00;102970.19;5060018;23;20594;-88
2023/01/29 04:33:10;;;;;;;45.20;15.93;;;;;;;-0.66;100.00;102968.63;4980993;28;20304;-88
2023/01/29 04:35:53;;;;;;;42.75;15.82;;;;;;;-0.62;100.00;102975.66;4620909;23;20066;-86
2023/01/29 04:38:39;;;;;;;45.60;15.75;;;;;;;-0.60;100.00;102968.06;5097716;23;20058;-93
2023/01/29 04:41:16;;;;;;;48.55;16.45;;;;;;;-0.63;100.00;102960.28;4982193;28;20515;-93
2023/01/29 04:43:56;;;;;;;43.30;15.90;;;;;;;-0.60;100.00;102946.03;5028380;23;20061;-91
2023/01/29 04:46:43;;;;;;;45.58;16.08;;;;;;;-0.56;100.00;102954.75;5083973;23;20054;-85
2023/01/29 04:49:53;;;;;;;42.65;16.05;;;;;;;-0.56;100.00;102949.66;5093268;23;20073;-85
2023/01/29 04:55:12;;;;;;;45.22;16.58;;;;;;;-0.54;100.00;102933.63;5091901;23;20134;-86
2023/01/29 05:00:34;;;;;;;45.30;15.98;;;;;;;-0.53;100.00;102922.66;4847049;23;1342149;-92
2023/01/29 05:03:01;;;;;;;48.65;16.15;;;;;;;-0.53;100.00;102926.88;5023412;23;20046;-86
2023/01/29 05:05:27;;;;;;;45.63;16.52;;;;;;;-0.57;100.00;102913.09;5001843;23;20608;-86
2023/01/29 05:07:54;;;;;;;48.72;16.85;;;;;;;-0.56;100.00;102911.44;5127962;23;20065;-87
2023/01/29 05:10:22;;;;;;;46.85;16.58;;;;;;;-0.49;100.00;102928.81;5074811;23;20537;-93
2023/01/29 05:12:53;;;;;;;44.70;16.65;;;;;;;-0.47;100.00;102930.63;4969772;28;20035;-92
2023/01/29 05:15:24;;;;;;;48.75;17.08;;;;;;;-0.44;100.00;102933.34;5073087;23;20034;-85
2023/01/29 05:17:52;;;;;;;50.55;18.10;;;;;;;-0.46;100.00;102927.28;5028800;23;20014;-85
2023/01/29 05:20:19;;;;;;;50.47;17.83;;;;;;;-0.56;100.00;102893.63;5090741;23;20061;-93
2023/01/29 05:22:45;;;;;;;47.05;16.77;;;;;;;-0.40;100.00;102917.44;4977467;23;21104;-85
2023/01/29 05:25:26;;;;;;;49.53;18.25;;;;;;;-0.38;100.00;102909.00;5052466;23;20060;-92
2023/01/29 05:28:04;;;;;;;53.53;18.75;;;;;;;-0.42;100.00;102906.31;5024489;23;20078;-92
2023/01/29 05:30:36;;;;;;;52.28;18.42;;;;;;;-0.39;100.00;102905.56;4698440;23;21646;-92
2023/01/29 05:33:02;;;;;;;49.97;18.55;;;;;;;-0.39;100.00;102900.47;5003487;23;20063;-86
2023/01/29 05:35:28;;;;;;;49.08;17.50;;;;;;;-0.36;100.00;102908.31;5008634;23;20124;-93
2023/01/29 05:37:57;;;;;;;50.55;18.08;;;;;;;-0.39;100.00;102903.03;5076454;23;20022;-85
2023/01/29 05:40:23;;;;;;;52.60;18.60;;;;;;;-0.44;100.00;102884.97;4666496;23;21290;-86
2023/01/29 05:42:49;;;;;;;50.80;18.13;;;;;;;-0.44;100.00;102884.97;5097012;23;20058;-86
2023/01/29 05:45:15;;;;;;;53.22;18.52;;;;;;;-0.30;100.00;102903.53;4398121;23;20054;-86
2023/01/29 05:50:12;;;;;;;54.13;18.80;;;;;;;-0.38;100.00;102893.72;5021574;23;20119;-86
2023/01/29 05:52:39;;;;;;;54.70;18.67;;;;;;;-0.26;100.00;102910.53;5145911;23;20134;-86
2023/01/29 05:55:05;;;;;;;50.00;18.15;;;;;;;-0.24;100.00;102921.69;5058549;23;20334;-92
2023/01/29 05:57:30;;;;;;;53.53;19.50;;;;;;;-0.24;100.00;102919.16;5019779;23;20074;-93
2023/01/29 06:02:35;;;;;;;53.47;19.63;;;;;;;-0.24;100.00;102918.25;5001266;23;20046;-93
2023/01/29 06:05:00;;;;;;;54.95;18.67;;;;;;;-0.18;100.00;102929.66;4610567;23;20051;-92
2023/01/29 06:07:25;;;;;;;51.58;19.27;;;;;;;-0.19;100.00;102927.03;4975777;23;20107;-92
2023/01/29 06:09:51;;;;;;;49.33;18.27;;;;;;;-0.19;100.00;102927.91;4994634;23;20055;-88
2023/01/29 06:17:19;;;;;;;52.65;19.52;;;;;;;-0.19;100.00;102938.09;5051039;23;20501;-89
2023/01/29 06:19:44;;;;;;;56.08;20.05;;;;;;;-0.07;100.00;102950.63;5007138;23;20061;-92
2023/01/29 06:22:10;;;;;;;59.70;20.42;;;;;;;-0.07;100.00;102948.09;4968589;28;20026;-92
2023/01/29 06:24:35;;;;;;;50.75;19.23;;;;;;;-0.02;100.00;102954.31;4990215;23;20046;-86
2023/01/29 06:27:01;;;;;;;57.70;19.27;;;;;;;-0.04;100.00;102936.38;4984469;28;20030;-86
2023/01/29 06:29:26;;;;;;;50.60;19.02;;;;;;;-0.02;100.00;102923.72;5006671;23;20073;-92
2023/01/29 06:31:52;;;;;;;52.60;18.73;;;;;;;-0.07;100.00;102903.06;4894458;23;20066;-92
2023/01/29 06:34:17;;;;;;;51.35;20.20;;;;;;;-0.12;100.00;102880.69;5112831;23;20211;-88
2023/01/29 06:36:42;;;;;;;53.97;19.17;;;;;;;0.00;100.00;102892.38;4990203;23;20054;-92
2023/01/29 06:41:38;;;;;;;54.33;19.90;;;;;;;0.02;100.00;102901.78;4690201;23;20030;-92
2023/01/29 06:44:03;;;;;;;56.25;20.58;;;;;;;-0.07;100.00;102895.41;4967301;23;20047;-88
2023/01/29 06:46:29;;;;;;;56.15;19.92;;;;;;;0.00;100.00;102902.59;4990153;23;20133;-92
2023/01/29 06:54:13;;;;;;;59.85;21.20;;;;;;;0.08;100.00;102902.09;4636769;23;20520;-93
2023/01/29 06:56:39;;;;;;;54.75;20.80;;;;;;;0.00;100.00;102897.47;4832490;23;20525;-88
2023/01/29 06:59:04;;;;;;;60.20;21.75;;;;;;;-0.02;100.00;102881.25;5042270;23;20060;-87
2023/01/29 07:01:30;;;;;;;52.92;20.60;;;;;;;0.06;100.00;102891.84;4957141;23;20051;-86
2023/01/29 07:06:35;;;;;;;57.20;21.98;;;;;;;0.12;100.00;102898.94;4833198;23;20051;-96
2023/01/29 07:09:01;;;;;;;55.10;20.98;;;;;;;0.10;100.00;102891.22;4949360;23;20067;-89
2023/01/29 07:11:26;;;;;;;59.22;21.67;;;;;;;0.03;100.00;102880.59;4985869;23;20058;-89
2023/01/29 07:16:37;;;;;;;58.45;21.77;;;;;;;0.00;100.00;102879.63;5003248;23;20051;-96
2023/01/29 07:19:03;;;;;;;60.72;21.45;;;;;;;0.21;100.00;102912.13;4981849;28;20121;-96
2023/01/29 07:22:01;;;;;;;57.10;20.75;;;;;;;0.06;100.00;102883.31;4980831;28;20027;-96
2023/01/29 07:24:34;;;;;;;56.22;21.10;;;;;;;0.07;100.00;102872.34;4985311;28;20074;-96
2023/01/29 07:27:02;;;;;;;57.42;20.85;;;;;;;0.26;100.00;102913.28;4982671;28;20022;-96
2023/01/29 07:29:37;;;;;;;51.92;21.25;;;;;;;0.27;100.00;102904.84;4982746;28;20019;-96
2023/01/29 07:32:09;;;;;;;55.25;20.05;;;;;;;0.19;100.00;102870.41;4977686;28;20074;-96
2023/01/29 07:34:37;;;;;;;55.50;21.52;;;;;;;0.20;100.00;102874.72;4981724;28;20034;-96
2023/01/29 07:37:10;;;;;;;55.33;20.70;;;;;;;0.28;100.00;102888.72;4974825;28;20031;-96
2023/01/29 07:39:51;;;;;;;;;;;;;;;;;;;;;
2023/01/29 07:42:26;;;;;;;62.70;21.38;;;;;;;0.22;100.00;102873.97;4976624;28;20050;-96
2023/01/29 07:45:01;;;;;;;57.83;20.58;;;;;;;0.23;100.00;102862.09;4976110;28;20035;-96
2023/01/29 07:47:26;;;;;;;;;;;;;;;0.43;100.00;102893.72;4981337;28;20031;-96
2023/01/29 07:50:08;;;;;;;53.85;20.48;;;;;;;0.21;100.00;102871.34;4980640;28;19915;-96
2023/01/29 07:52:42;;;;;;;58.63;21.10;;;;;;;0.26;100.00;102875.03;4981677;28;20057;-96
2023/01/29 07:55:26;;;;;;;60.30;22.10;;;;;;;0.44;100.00;102892.91;4989887;28;20083;-96
2023/01/29 07:58:02;;;;;;;52.80;20.13;;;;;;;0.27;100.00;102857.22;4976488;28;20054;-96
2023/01/29 08:00:31;;;;;;;59.75;21.27;;;;;;;0.30;100.00;102853.97;4978125;28;20297;-96
2023/01/29 08:03:15;;;;;;;57.45;21.15;;;;;;;0.30;100.00;102851.41;4981193;28;20023;-96
2023/01/29 08:05:44;;;;;;;56.47;21.33;;;;;;;0.37;100.00;102859.47;4977727;28;20022;-96
2023/01/29 08:08:16;;;;;;;58.42;21.08;;;;;;;0.36;100.00;102850.06;4972725;28;20610;-96
2023/01/29 08:10:53;;;;;;;54.95;20.33;;;;;;;0.39;100.00;102855.31;4988945;28;20022;-96
2023/01/29 08:13:18;;;;;;;56.58;21.35;;;;;;;0.60;100.00;102891.22;4584820;23;20257;-93
2023/01/29 08:18:14;;;;;;;54.08;21.17;;;;;;;0.65;100.00;102881.25;4961098;28;20051;-88
2023/01/29 08:20:39;;;;;;;52.80;20.25;;;;;;;0.67;100.00;102872.88;4972493;23;20369;-93
2023/01/29 08:28:40;;;;;;;55.70;20.95;;;;;;;0.75;100.00;102865.59;4638042;23;19964;-90
2023/01/29 08:31:13;;;;;;;55.30;21.08;;;;;;;0.69;100.00;102853.38;4961136;28;20046;-89
2023/01/29 08:33:38;;;;;;;52.78;19.90;;;;;;;0.71;100.00;102849.22;4870836;23;21063;-93
2023/01/29 08:36:04;;;;;;;53.53;21.35;;;;;;;0.74;100.00;102851.06;5088164;23;20046;-92
2023/01/29 08:40:59;;;;;;;54.22;20.95;;;;;;;0.72;100.00;102833.13;4830425;23;21408;-85
2023/01/29 08:45:56;;;;;;;55.30;21.25;;;;;;;0.85;100.00;102836.25;4960598;23;20055;-86
2023/01/29 08:48:22;;;;;;;53.83;21.10;;;;;;;0.88;100.00;102831.31;4950168;28;20086;-85
2023/01/29 08:50:48;;;;;;;51.03;21.02;;;;;;;0.92;100.00;102833.19;4975418;23;20058;-87
2023/01/29 08:53:28;;;;;;;56.40;21.40;;;;;;;0.83;100.00;102814.88;5051489;23;20065;-96
2023/01/29 08:58:43;;;;;;;53.35;20.30;;;;;;;0.92;100.00;102816.22;5019239;23;20043;-96
2023/01/29 09:03:43;;;;;;;54.88;21.27;;;;;;;1.06;100.00;102829.63;4630896;23;20122;-88
2023/01/29 09:06:13;;;;;;;52.95;19.85;;;;;;;1.16;100.00;102840.31;4743897;23;20063;-92
2023/01/29 09:08:39;;;;;;;53.47;20.92;;;;;;;1.26;100.00;102844.19;5020381;23;21209;-86
2023/01/29 09:11:07;;;;;;;52.20;20.88;;;;;;;1.30;100.00;102840.13;4634424;23;20429;-93
2023/01/29 09:13:33;;;;;;;51.60;20.17;;;;;;;1.28;100.00;102822.16;5250064;23;20035;-87
2023/01/29 09:16:00;;;;;;;50.40;20.73;;;;;;;1.30;100.00;102827.34;5024213;23;20470;-87
2023/01/29 09:18:26;;;;;;;52.58;21.13;;;;;;;1.38;100.00;102823.44;5111342;23;20476;-89
2023/01/29 09:23:27;;;;;;;48.90;20.00;;;;;;;1.43;100.00;102814.31;4945899;23;20034;-87
2023/01/29 09:25:53;;;;;;;46.45;18.88;;;;;;;1.52;100.00;102824.94;4853074;23;20429;-87
2023/01/29 09:33:44;;;;;;;47.90;19.35;;;;;;;1.62;99.68;102808.34;4926320;29;20091;-87
2023/01/29 09:36:10;;;;;;;43.78;16.83;;;;;;;1.69;97.31;102815.47;4927821;29;20039;-87
2023/01/29 09:38:35;;;;;;;45.83;19.25;;;;;;;1.68;97.40;102821.38;4928627;29;20032;-87
2023/01/29 09:41:16;;;;;;;47.15;20.40;;;;;;;1.62;97.22;102816.88;5105486;23;20511;-87
2023/01/29 09:43:48;;;;;;;48.08;20.38;;;;;;;1.75;97.83;102821.72;5071307;23;20071;-91
2023/01/29 09:46:23;;;;;;;48.10;18.55;;;;;;;1.74;96.38;102813.97;5054254;23;20136;-90
2023/01/29 09:48:57;;;;;;;45.95;18.77;;;;;;;1.80;97.38;102815.13;5337734;23;20078;-87
2023/01/29 09:56:32;;;;;;;46.30;19.30;;;;;;;1.89;96.74;102815.53;4563599;26;20524;-96
2023/01/29 09:58:58;;;;;;;44.20;17.83;;;;;;;1.98;96.18;102817.59;3615205;23;20388;-88
2023/01/29 10:09:56;;;;;;;43.28;18.83;;;;;;;2.14;95.36;102835.34;4998825;23;20059;-90
2023/01/29 10:15:04;;;;;;;42.55;18.67;;;;;;;2.22;94.57;102831.44;4740256;23;20071;-94
2023/01/29 10:20:43;;;;;;;42.58;18.50;;;;;;;2.25;93.86;102836.66;4994367;23;20062;-92
2023/01/29 10:25:47;;;;;;;49.45;20.38;;;;;;;2.25;92.43;102823.88;5061728;23;20209;-92
2023/01/29 10:28:27;;;;;;;42.40;17.90;;;;;;;2.18;91.82;102819.34;5083025;23;20047;-96
2023/01/29 10:33:36;;;;;;;46.33;19.20;;;;;;;2.26;92.45;102825.63;4786996;26;20110;-96
2023/01/29 10:36:07;;;;;;;41.13;17.95;;;;;;;2.18;92.08;102816.78;4997271;23;20062;-93
2023/01/29 10:38:32;;;;;;;43.58;18.65;;;;;;;2.30;92.10;102836.88;4107000;23;1450334;-91
2023/01/29 10:41:04;;;;;;;42.15;19.33;;;;;;;2.31;91.86;102828.41;4222002;23;20416;-91
2023/01/29 10:43:53;;;;;;;41.42;18.85;;;;;;;2.32;91.83;102828.44;4996363;23;20201;-94
2023/01/29 10:51:41;;;;;;;42.33;18.42;;;;;;;2.47;91.42;102820.53;4999334;23;20205;-95
2023/01/29 10:59:56;;;;;;;38.75;17.98;;;;;;;2.55;90.49;102800.38;4991865;23;20070;-94
2023/01/29 11:04:57;;;;;;;39.35;17.60;;;;;;;2.55;90.53;102770.53;5354944;23;20627;-94
2023/01/29 11:10:03;;;;;;;41.13;17.58;;;;;;;2.67;90.27;102754.78;4796903;23;20046;-96
2023/01/29 11:12:42;;;;;;;38.58;19.10;;;;;;;2.65;90.68;102741.94;5008758;28;20042;-96
2023/01/29 11:15:55;;;;;;;37.63;17.08;;;;;;;2.93;90.48;102751.56;4990832;28;20022;-96
2023/01/29 11:19:03;;;;;;;42.63;18.48;;;;;;;2.89;90.62;102725.75;4932117;29;20039;-96
2023/01/29 11:21:35;;;;;;;39.65;17.95;;;;;;;2.96;90.07;102720.91;5010804;28;20033;-96
2023/01/29 11:24:34;;;;;;;38.85;17.73;;;;;;;3.14;90.05;102715.59;4993007;28;20043;-96
2023/01/29 11:27:34;;;;;;;40.00;18.17;;;;;;;3.26;89.62;102704.94;4992052;28;20039;-96
2023/01/29 11:30:02;;;;;;;38.83;17.88;;;;;;;3.34;87.69;102701.84;5012422;28;20053;-96
2023/01/29 11:32:41;;;;;;;36.70;17.27;;;;;;;3.42;87.00;102697.84;4996888;28;20018;-96
2023/01/29 11:35:32;;;;;;;39.05;18.65;;;;;;;3.69;88.74;102717.56;4996745;28;20034;-96
2023/01/29 11:38:43;;;;;;;36.60;17.88;;;;;;;3.63;88.52;102679.75;4998215;28;20045;-96
2023/01/29 11:41:42;;;;;;;35.00;16.35;;;;;;;3.66;87.09;102682.44;4935238;29;20032;-96
2023/01/29 11:44:54;;;;;;;35.53;16.48;;;;;;;3.81;86.02;102700.91;4905892;29;20032;-96
2023/01/29 11:47:32;;;;;;;36.03;16.30;;;;;;;3.57;85.56;102679.56;4920669;29;20071;-96
2023/01/29 11:50:34;;;;;;;37.10;16.23;;;;;;;3.52;85.60;102661.47;4940865;29;20043;-96
2023/01/29 11:53:13;;;;;;;;;;;;;;;;;;;;;
2023/01/29 11:55:47;;;;;;;37.08;17.23;;;;;;;3.48;84.92;102658.75;5012915;28;20060;-96
2023/01/29 11:58:33;;;;;;;;;;;;;;;3.69;86.60;102677.41;4989509;28;20066;-96
2023/01/29 12:00:59;;;;;;;37.03;16.10;;;;;;;3.51;84.84;102649.47;5002721;23;19913;-90
2023/01/29 12:03:47;;;;;;;33.50;16.38;;;;;;;3.55;85.53;102645.28;4751516;23;20055;-89
2023/01/29 12:06:29;;;;;;;35.10;16.23;;;;;;;3.66;84.67;102655.94;4672950;23;20299;-89
2023/01/29 12:08:58;;;;;;;36.53;16.98;;;;;;;3.66;83.74;102646.53;5130893;23;20058;-89
2023/01/29 12:11:32;;;;;;;38.03;16.35;;;;;;;3.54;82.57;102631.63;4646513;23;20074;-96
2023/01/29 12:14:01;;;;;;;36.05;15.65;;;;;;;3.54;82.97;102646.13;4992102;28;20034;-94
2023/01/29 12:16:29;;;;;;;35.17;16.45;;;;;;;3.60;82.60;102653.16;5074477;23;20481;31
2023/01/29 12:19:10;;;;;;;39.35;16.88;;;;;;;3.54;83.96;102653.81;4978345;23;20134;-93
2023/01/29 12:21:48;;;;;;;35.30;16.92;;;;;;;3.54;84.44;102646.13;4926635;29;20044;-91
2023/01/29 12:24:28;;;;;;;33.22;16.90;;;;;;;3.53;84.55;102631.56;4939735;28;20051;-92
2023/01/29 12:27:18;;;;;;;35.95;17.33;;;;;;;3.53;85.66;102629.88;5061721;23;20062;-88
2023/01/29 12:29:59;;;;;;;37.75;17.80;;;;;;;3.50;85.04;102621.19;5138127;23;20026;-89
2023/01/29 12:32:37;;;;;;;39.10;17.95;;;;;;;3.52;85.17;102627.25;5134184;23;20046;-96
2023/01/29 12:37:49;;;;;;;41.63;18.58;;;;;;;3.55;86.06;102610.28;4982700;23;20051;-89
2023/01/29 12:40:16;;;;;;;36.90;17.45;;;;;;;3.54;84.92;102608.56;4979291;23;20141;-91
2023/01/29 12:50:50;;;;;;;37.70;17.55;;;;;;;3.45;85.33;102591.97;5167617;23;20066;-88
2023/01/29 12:55:54;;;;;;;39.22;18.55;;;;;;;3.45;86.28;102576.59;5271828;23;20030;-91
2023/01/29 13:03:51;;;;;;;39.45;17.77;;;;;;;3.53;84.57;102581.19;5303686;23;20054;-95
2023/01/29 13:19:42;;;;;;;42.20;19.45;;;;;;;3.40;84.52;102544.84;5059260;23;20348;-96
2023/01/29 13:27:21;;;;;;;48.42;19.08;;;;;;;3.31;85.50;102518.91;5054182;23;20058;-94
2023/01/29 13:37:45;;;;;;;43.00;18.73;;;;;;;3.49;85.09;102520.34;5408387;23;20030;-92
2023/01/29 13:40:27;;;;;;;44.13;19.98;;;;;;;3.49;85.12;102516.91;5112876;23;20051;-94
2023/01/29 13:42:59;;;;;;;46.88;20.80;;;;;;;3.39;86.16;102489.25;4978420;28;20057;-94
2023/01/29 13:45:36;;;;;;;51.67;21.90;;;;;;;3.53;86.57;102516.22;5089812;23;21162;-91
2023/01/29 13:55:42;;;;;;;48.40;20.05;;;;;;;3.54;85.72;102510.25;5078682;23;20054;-95
2023/01/29 13:58:35;;;;;;;45.50;20.55;;;;;;;3.45;86.44;102508.28;4944377;23;20112;-89
2023/01/29 14:01:01;;;;;;;45.28;20.27;;;;;;;3.38;86.52;102495.22;4964059;28;20034;-88
2023/01/29 14:03:26;;;;;;;49.60;20.80;;;;;;;3.41;87.17;102505.56;5115556;23;20065;-88
2023/01/29 14:08:33;;;;;;;41.57;18.60;;;;;;;3.45;86.82;102505.72;4721892;23;20031;-89
2023/01/29 14:13:35;;;;;;;46.63;18.40;;;;;;;3.20;87.49;102484.38;4619579;23;20083;-93
2023/01/29 14:16:00;;;;;;;49.58;21.38;;;;;;;3.27;87.59;102474.38;5136127;23;20587;-94
2023/01/29 14:21:18;;;;;;;60.97;28.60;;;;;;;3.34;88.21;102478.00;5043616;23;20046;-94
2023/01/29 14:26:36;;;;;;;57.10;25.90;;;;;;;3.50;88.03;102486.22;4948735;23;20048;-94
2023/01/29 14:29:11;;;;;;;61.53;33.00;;;;;;;3.50;88.47;102469.97;4621560;23;20067;-95
2023/01/29 14:34:30;;;;;;;;;;;;;;;3.57;88.46;102470.19;4103328;23;20001;-94
2023/01/29 14:42:17;;;;;;;53.25;24.38;;;;;;;3.48;88.66;102451.13;4659782;23;20111;-89
2023/01/29 14:45:21;;;;;;;63.03;28.98;;;;;;;3.59;88.32;102460.00;5111057;23;20066;-89
2023/01/29 14:47:49;;;;;;;57.30;27.35;;;;;;;3.57;88.11;102446.25;5076379;23;20069;-90
2023/01/29 14:50:30;;;;;;;53.92;25.88;;;;;;;3.62;89.13;102454.94;5038741;23;20081;-89
2023/01/29 14:53:07;;;;;;;65.28;31.73;;;;;;;3.62;88.32;102460.06;5075278;23;20041;-89
2023/01/29 14:55:47;;;;;;;100.43;50.85;;;;;;;3.54;88.17;102438.50;4965539;28;20049;-89
2023/01/29 14:58:18;;;;;;;57.83;26.95;;;;;;;3.64;87.05;102445.63;4993171;23;20533;-89
2023/01/29 15:03:26;;;;;;;53.78;24.20;;;;;;;3.60;88.09;102443.78;5063450;23;20066;-94
2023/01/29 15:05:53;;;;;;;61.67;29.27;;;;;;;3.48;88.44;102431.44;4664710;23;20062;-89
2023/01/29 15:13:49;;;;;;;71.78;32.38;;;;;;;3.54;88.27;102441.94;4693731;23;20058;-89
2023/01/29 15:16:22;;;;;;;59.83;24.75;;;;;;;3.50;88.78;102445.19;4971532;28;20265;-88
2023/01/29 15:18:52;;;;;;;84.50;36.67;;;;;;;3.48;89.33;102436.56;4985800;28;20041;-88
2023/01/29 15:21:18;;;;;;;86.63;36.05;;;;;;;3.52;88.43;102429.88;5123850;23;20148;-89
2023/01/29 15:23:47;;;;;;;65.43;28.15;;;;;;;3.43;88.04;102421.88;4992274;28;20455;-89
2023/01/29 15:26:57;;;;;;;90.93;37.10;;;;;;;3.26;88.85;102393.19;4993560;23;20122;-95
2023/01/29 15:29:30;;;;;;;62.95;26.00;;;;;;;3.44;88.67;102424.50;5011631;23;20054;-96
2023/01/29 15:31:57;;;;;;;57.95;26.83;;;;;;;3.39;88.65;102415.81;4954621;23;20056;-90
2023/01/29 15:34:28;;;;;;;56.00;23.23;;;;;;;3.27;88.59;102400.06;5140031;23;20055;-93
2023/01/29 15:36:54;;;;;;;58.33;26.85;;;;;;;3.33;88.83;102415.63;4993136;23;20035;-93
2023/01/29 15:42:24;;;;;;;108.38;47.88;;;;;;;3.16;88.98;102394.59;5123820;23;20042;-93
2023/01/29 15:44:53;;;;;;;90.20;40.53;;;;;;;3.26;88.73;102415.38;4989932;23;20191;-92
2023/01/29 15:55:00;;;;;;;81.30;31.92;;;;;;;3.16;89.55;102392.03;5099308;23;20531;-92